^^
Datos históricos de la estación: Murcia-Puente Tocinos
Diario Informe para Febrero 8, 2019 Unidades:  Ingés    Métrico   Ambas
Diario Semanal Mensual Anual
  Máxima: Mínima: Promedio:
Temperatura: 86.5 °F 73.9 °F 80.1 °F
Punto de rocio: 70.3 °F 58.5 °F 66.7 °F
Humedad: 83% 39.1% 65%
Velocidad viento: 14.5mph 0mph 6.5mph
Racha viento: 25.3mph - -
Viento- - Este
Presión: 29.8 in 29.7 in -
Precipitación: 0 in    
 
 
Tabla de datos para Febrero 8, 2019
Hora Temperatura Punto de rocio Presión Viento Velocidad viento Racha viento Humedad Intensidad lluvia(por hora) Nubes
00:04 84.6 °F 62.4 °F 29.8 in ENE 4.7 mph 10 mph 47.6% 0 in
00:09 84.6 °F 63 °F 29.8 in NNE 5.1 mph 17.5 mph 48.5% 0 in
00:14 83.8 °F 64.9 °F 29.8 in NE 5.9 mph 17.3 mph 53% 0 in
00:19 83.3 °F 65.3 °F 29.8 in NNE 6.7 mph 15 mph 54.7% 0 in
00:24 82.9 °F 65.8 °F 29.8 in NNE 8.5 mph 17.3 mph 56.6% 0 in
00:29 82.6 °F 67.3 °F 29.8 in NE 8.6 mph 17 mph 60% 0 in
00:34 82 °F 67.5 °F 29.8 in NE 8.7 mph 15 mph 61.1% 0 in
00:39 81.9 °F 67.5 °F 29.8 in NE 8.7 mph 14 mph 62% 0 in
00:44 81.7 °F 67.8 °F 29.8 in NE 8.7 mph 15.2 mph 62.9% 0 in
00:49 81.3 °F 67.6 °F 29.8 in NE 8.6 mph 15 mph 63% 0 in
00:54 81.3 °F 67.5 °F 29.8 in NE 8.5 mph 15.2 mph 63.1% 0 in
00:59 81.1 °F 68.2 °F 29.8 in NE 8.9 mph 15.9 mph 64.5% 0 in
01:04 81.1 °F 68.4 °F 29.8 in NE 9.7 mph 20.4 mph 65% 0 in
01:09 81.1 °F 68.4 °F 29.8 in NE 9.5 mph 20 mph 65.1% 0 in
01:14 81 °F 68.4 °F 29.8 in NE 9.2 mph 13 mph 65.7% 0 in
01:19 81 °F 68.4 °F 29.8 in NE 8.4 mph 12 mph 65.6% 0 in
01:24 81 °F 68.9 °F 29.8 in NNE 6.9 mph 12.7 mph 67% 0 in
01:29 80.8 °F 69.6 °F 29.8 in NE 6.9 mph 13 mph 68.9% 0 in
01:34 80.6 °F 70 °F 29.8 in NE 6.9 mph 16.1 mph 70% 0 in
01:39 80.4 °F 70 °F 29.8 in NE 7.3 mph 16 mph 70.5% 0 in
01:44 80.4 °F 70.3 °F 29.8 in NE 8.1 mph 15 mph 71.5% 0 in
01:49 80.2 °F 70 °F 29.8 in NE 8.1 mph 15 mph 70.8% 0 in
01:54 80.2 °F 68.7 °F 29.8 in ENE 8.1 mph 15 mph 68.2% 0 in
01:59 80.2 °F 67.1 °F 29.8 in Este 7.5 mph 13 mph 64.3% 0 in
02:04 80.6 °F 65.5 °F 29.8 in ENE 6.2 mph 10 mph 60.2% 0 in
02:09 80.8 °F 64.9 °F 29.8 in Este 5.4 mph 8 mph 58.4% 0 in
02:14 81 °F 64.4 °F 29.8 in Este 3.6 mph 6.4 mph 57.2% 0 in
02:19 81.1 °F 64.6 °F 29.8 in ESE 3.7 mph 12.7 mph 57.1% 0 in
02:24 81.1 °F 65.3 °F 29.8 in ESE 4 mph 13 mph 58.8% 0 in
02:29 81 °F 65.8 °F 29.8 in ESE 5 mph 12.7 mph 60.2% 0 in
02:34 80.4 °F 65.8 °F 29.8 in ESE 7.4 mph 13 mph 61.2% 0 in
02:39 80.2 °F 66 °F 29.8 in ESE 6.5 mph 10 mph 62% 0 in
02:44 80.2 °F 66.2 °F 29.8 in NE 4.7 mph 8.1 mph 62.5% 0 in
02:49 80.1 °F 66.4 °F 29.8 in North 4.2 mph 8 mph 63% 0 in
02:54 80.1 °F 66.4 °F 29.8 in Este 3.1 mph 6.2 mph 63% 0 in
02:59 80.1 °F 66.4 °F 29.8 in ENE 3.1 mph 7.4 mph 63% 0 in
03:04 80.1 °F 66.2 °F 29.8 in ENE 3.1 mph 7 mph 63% 0 in
03:09 79.9 °F 66.2 °F 29.8 in ENE 3.1 mph 7 mph 63% 0 in
03:14 79.9 °F 66.2 °F 29.8 in NE 3.1 mph 6.9 mph 63.2% 0 in
03:19 79.5 °F 66.4 °F 29.8 in NE 3.5 mph 7 mph 64% 0 in
03:24 79.3 °F 66.4 °F 29.8 in ENE 4.3 mph 7 mph 64.8% 0 in
03:29 79.3 °F 66.6 °F 29.8 in ENE 3.6 mph 5.4 mph 65% 0 in
03:34 79.3 °F 66.6 °F 29.8 in ESE 2 mph 6 mph 65.1% 0 in
03:39 79.2 °F 66.7 °F 29.8 in Este 2.5 mph 6 mph 66% 0 in
03:44 79 °F 66.7 °F 29.8 in NE 3.6 mph 6.2 mph 66.6% 0 in
03:49 78.6 °F 66.7 °F 29.8 in NNE 3.6 mph 6 mph 67% 0 in
03:54 78.4 °F 66.7 °F 29.8 in NE 3.6 mph 6 mph 67.3% 0 in
03:59 78.3 °F 66.9 °F 29.8 in NE 3.4 mph 5 mph 68% 0 in
04:04 78.3 °F 66.7 °F 29.8 in NE 2.9 mph 5 mph 68% 0 in
04:09 78.3 °F 67.1 °F 29.8 in ENE 2.7 mph 5 mph 68.6% 0 in
04:14 78.3 °F 67.3 °F 29.8 in Este 2.4 mph 5 mph 69% 0 in
04:19 78.3 °F 67.1 °F 29.8 in SE 2.5 mph 5.2 mph 68.5% 0 in
04:24 78.3 °F 67.3 °F 29.8 in SSE 2.9 mph 5.2 mph 68.9% 0 in
04:29 78.3 °F 67.3 °F 29.8 in SE 2.7 mph 5 mph 69% 0 in
04:34 78.3 °F 66.9 °F 29.8 in Sur 2.4 mph 7.4 mph 68.2% 0 in
04:39 78.4 °F 66.9 °F 29.8 in Sur 3 mph 9.2 mph 68% 0 in
04:44 78.6 °F 67.1 °F 29.8 in SSO 4.3 mph 9 mph 68% 0 in
04:49 78.6 °F 67.5 °F 29.8 in OSO 4.2 mph 8 mph 68.5% 0 in
04:54 78.4 °F 67.1 °F 29.8 in NO 4 mph 9.7 mph 68.1% 0 in
04:59 78.3 °F 67.1 °F 29.8 in NO 4.3 mph 10 mph 68.6% 0 in
05:04 77.9 °F 67.3 °F 29.8 in NNO 4.7 mph 10 mph 69.8% 0 in
05:09 77.5 °F 67.5 °F 29.8 in NNO 4.5 mph 8.5 mph 70.8% 0 in
05:14 77.4 °F 67.6 °F 29.8 in NNO 4 mph 9 mph 71.9% 0 in
05:19 77.2 °F 67.5 °F 29.8 in NO 3.7 mph 7 mph 72% 0 in
05:24 77.2 °F 67.8 °F 29.8 in Oeste 3.1 mph 6 mph 72.6% 0 in
05:29 77.2 °F 67.8 °F 29.8 in OSO 2.7 mph 4 mph 73% 0 in
05:34 77.2 °F 67.8 °F 29.8 in SO 1.8 mph 4.7 mph 73% 0 in
05:39 77.2 °F 68 °F 29.8 in Oeste 2 mph 5 mph 73% 0 in
05:44 77.4 °F 67.8 °F 29.8 in ONO 2.4 mph 3.6 mph 72.6% 0 in
05:49 77.4 °F 67.6 °F 29.8 in ESE 2.1 mph 4.6 mph 72.1% 0 in
05:54 77.5 °F 67.6 °F 29.8 in NE 1.4 mph 5 mph 72% 0 in
05:59 77.4 °F 67.6 °F 29.8 in NE 1.6 mph 5 mph 72% 0 in
06:04 77.4 °F 67.6 °F 29.8 in Este 1.8 mph 6.9 mph 72.1% 0 in
06:09 77.4 °F 68 °F 29.8 in SSE 2.2 mph 7 mph 73% 0 in
06:14 77.4 °F 68 °F 29.8 in ESE 3.1 mph 6.2 mph 73% 0 in
06:19 77.4 °F 68 °F 29.8 in Sur 3.1 mph 6 mph 73% 0 in
06:24 77.2 °F 68 °F 29.8 in OSO 3.1 mph 6.2 mph 73.2% 0 in
06:29 77.4 °F 68 °F 29.8 in OSO 3.1 mph 6 mph 73% 0 in
06:34 77.4 °F 68 °F 29.8 in Oeste 3.1 mph 5 mph 73% 0 in
06:39 77.4 °F 68 °F 29.8 in ONO 2.9 mph 5 mph 73% 0 in
06:44 77.4 °F 68 °F 29.8 in ONO 2.4 mph 5 mph 73% 0 in
06:49 77.2 °F 67.8 °F 29.8 in ONO 1.6 mph 2 mph 73% 0 in
06:54 77.2 °F 67.8 °F 29.8 in Calm   1 mph 73% 0 in
06:59 77.2 °F 67.8 °F 29.8 in Calm     73% 0 in
07:04 77.2 °F 67.8 °F 29.8 in Calm   3.6 mph 73% 0 in
07:09 77.2 °F 68 °F 29.8 in NO 0.4 mph 4 mph 73.1% 0 in
07:14 77 °F 68 °F 29.8 in NO 1.4 mph 4 mph 74% 0 in
07:19 76.8 °F 67.8 °F 29.8 in NO 0.9 mph 4 mph 74% 0 in
07:24 76.8 °F 67.8 °F 29.8 in Calm   6.2 mph 74% 0 in
07:29 76.8 °F 67.8 °F 29.8 in Sur 1 mph 6 mph 74% 0 in
07:34 76.8 °F 67.8 °F 29.8 in SSE 3.1 mph 5.8 mph 74% 0 in
07:39 77 °F 68 °F 29.8 in SSE 3.1 mph 6 mph 74% 0 in
07:44 77.2 °F 68.2 °F 29.8 in SSE 3.1 mph 5 mph 74% 0 in
07:49 77.2 °F 68.2 °F 29.8 in Este 2.7 mph 4.7 mph 74% 0 in
07:54 77.2 °F 68.2 °F 29.8 in ESE 2 mph 5.8 mph 74% 0 in
07:59 76.8 °F 68.2 °F 29.8 in ENE 2.5 mph 6 mph 74.7% 0 in
08:04 76.6 °F 67.8 °F 29.8 in ENE 3.6 mph 5.9 mph 74.3% 0 in
08:09 76.6 °F 67.6 °F 29.8 in NE 3.4 mph 6 mph 74% 0 in
08:14 76.6 °F 67.6 °F 29.8 in ENE 3.1 mph 5 mph 73.9% 0 in
08:19 76.8 °F 67.6 °F 29.8 in NNE 2.9 mph 5.9 mph 73.7% 0 in
08:24 76.8 °F 67.8 °F 29.8 in NE 2.4 mph 8.1 mph 74% 0 in
08:29 76.6 °F 68.2 °F 29.8 in NNE 3.3 mph 8.5 mph 75.1% 0 in
08:34 76.5 °F 68.2 °F 29.8 in North 5.4 mph 9 mph 75.5% 0 in
08:39 76.5 °F 68.2 °F 29.8 in NO 5 mph 6.9 mph 75.7% 0 in
08:44 76.5 °F 68.2 °F 29.8 in ONO 4 mph 7 mph 76% 0 in
08:49 76.5 °F 68.2 °F 29.8 in Oeste 4.1 mph 7 mph 75.6% 0 in
08:54 76.5 °F 68 °F 29.8 in Oeste 4.3 mph 6 mph 75% 0 in
08:59 76.6 °F 68 °F 29.8 in Oeste 3.5 mph 4.6 mph 75% 0 in
09:04 76.6 °F 68.2 °F 29.8 in SO 2 mph 5 mph 75% 0 in
09:09 76.8 °F 68.4 °F 29.8 in OSO 2 mph 5 mph 75.1% 0 in
09:14 76.8 °F 68.5 °F 29.8 in OSO 2 mph 3 mph 75.3% 0 in
09:19 77.2 °F 68.5 °F 29.8 in OSO 1.4 mph 5.4 mph 75% 0 in
09:24 77.2 °F 68.5 °F 29.8 in Calm   6 mph 75% 0 in
09:29 77.2 °F 68.2 °F 29.8 in ONO 0.9 mph 5 mph 74% 0 in
09:34 77.2 °F 68.2 °F 29.8 in NO 2.9 mph 5 mph 73.9% 0 in
09:39 77.4 °F 68.5 °F 29.8 in NO 2.4 mph 4 mph 74.4% 0 in
09:44 77.5 °F 68.4 °F 29.8 in North 1.4 mph 5.9 mph 73.7% 0 in
09:49 77.5 °F 68.2 °F 29.8 in NE 1.9 mph 6.9 mph 73% 0 in
09:54 77.4 °F 68.2 °F 29.8 in NE 2.9 mph 7 mph 73.5% 0 in
09:59 77.4 °F 68.7 °F 29.8 in ENE 2.7 mph 6 mph 74.5% 0 in
10:04 77.5 °F 69.1 °F 29.8 in NE 2.4 mph 5.9 mph 75% 0 in
10:09 77.7 °F 69.3 °F 29.8 in NNE 2.9 mph 8.1 mph 75.3% 0 in
10:14 77.9 °F 69.3 °F 29.8 in ENE 4 mph 8 mph 75% 0 in
10:19 78.1 °F 69.4 °F 29.8 in Este 3.7 mph 7 mph 75% 0 in
10:24 78.3 °F 69.3 °F 29.8 in ESE 3.1 mph 4.6 mph 74.1% 0 in
10:29 78.4 °F 69.6 °F 29.8 in ENE 2.7 mph 5 mph 74% 0 in
10:34 79.2 °F 69.6 °F 29.8 in ENE 2 mph 5 mph 72.6% 0 in
10:39 79.5 °F 69.3 °F 29.8 in NNO 2 mph 5.9 mph 71% 0 in
10:44 79.3 °F 68.7 °F 29.8 in NNO 2 mph 6 mph 70% 0 in
10:49 79.3 °F 68.7 °F 29.8 in NE 2.4 mph 7.6 mph 69.8% 0 in
10:54 79.2 °F 68.2 °F 29.8 in NNE 3.1 mph 8.1 mph 69% 0 in
10:59 79.3 °F 67.8 °F 29.8 in NE 3.1 mph 6 mph 67.9% 0 in
11:04 79.5 °F 67.6 °F 29.8 in NE 3.1 mph 6.9 mph 66.8% 0 in
11:09 80.1 °F 67.3 °F 29.8 in NNE 3.3 mph 7.4 mph 65.1% 0 in
11:14 80.1 °F 66.7 °F 29.8 in NE 3.6 mph 7 mph 64% 0 in
11:19 80.1 °F 67.1 °F 29.8 in NNE 3.9 mph 6 mph 64.7% 0 in
11:24 80.6 °F 67.5 °F 29.8 in NE 4.3 mph 9.2 mph 64.1% 0 in
11:29 80.8 °F 67.5 °F 29.8 in NNE 4.2 mph 9 mph 63.9% 0 in
11:34 81 °F 67.3 °F 29.8 in NE 4 mph 6.2 mph 62.9% 0 in
11:39 81 °F 66.4 °F 29.8 in NE 3.7 mph 6.2 mph 61.2% 0 in
11:44 81 °F 66.7 °F 29.8 in NE 3.1 mph 6 mph 61.8% 0 in
11:49 81.1 °F 66.6 °F 29.8 in ENE 3 mph 6.2 mph 61.4% 0 in
11:54 81.1 °F 66.7 °F 29.8 in ENE 2.9 mph 6 mph 61.8% 0 in
11:59 81.1 °F 67.5 °F 29.8 in Este 3.2 mph 7.4 mph 63.2% 0 in
12:04 81.1 °F 67.8 °F 29.8 in ENE 3.6 mph 8.1 mph 64% 0 in
12:09 81 °F 67.8 °F 29.8 in ENE 3.9 mph 8.5 mph 64.2% 0 in
12:14 81.1 °F 67.5 °F 29.8 in ENE 4.7 mph 9 mph 63.3% 0 in
12:19 81.1 °F 67.3 °F 29.8 in Este 4.7 mph 9 mph 62.8% 0 in
12:24 81.1 °F 67.1 °F 29.8 in NE 4.7 mph 8.7 mph 62% 0 in
12:29 81.3 °F 67.5 °F 29.8 in NNE 5.1 mph 12.7 mph 62.9% 0 in
12:34 81.5 °F 68.2 °F 29.8 in NE 5.9 mph 13 mph 64% 0 in
12:39 81.9 °F 68.5 °F 29.8 in ENE 6 mph 11 mph 64.1% 0 in
12:44 82 °F 68 °F 29.8 in NE 6.2 mph 13.7 mph 62.5% 0 in
12:49 82 °F 67.1 °F 29.8 in NE 6.8 mph 14 mph 60.4% 0 in
12:54 82.2 °F 66.9 °F 29.8 in NE 8.1 mph 13 mph 60% 0 in
12:59 82.6 °F 67.1 °F 29.8 in NE 7.3 mph 11.5 mph 59.6% 0 in
13:04 82.6 °F 66.2 °F 29.8 in NE 5.9 mph 12 mph 57.6% 0 in
13:09 82.8 °F 65.5 °F 29.8 in NE 6.4 mph 13.8 mph 56.2% 0 in
13:14 82.8 °F 64.6 °F 29.8 in NE 7.4 mph 14 mph 54.5% 0 in
13:19 82.6 °F 63.7 °F 29.8 in NNE 7.6 mph 15.2 mph 52.9% 0 in
13:24 82.6 °F 63.1 °F 29.8 in NE 8.1 mph 15 mph 52% 0 in
13:29 82.8 °F 63.9 °F 29.8 in NNE 8.3 mph 15 mph 53% 0 in
13:34 82.9 °F 64.2 °F 29.8 in NE 8.7 mph 14 mph 53.5% 0 in
13:39 83.1 °F 64.6 °F 29.8 in NNE 8.6 mph 17.5 mph 53.7% 0 in
13:44 83.5 °F 64.6 °F 29.8 in NE 8.5 mph 17 mph 53% 0 in
13:49 84.2 °F 63.9 °F 29.8 in NE 8.7 mph 16 mph 50.6% 0 in
13:54 84.6 °F 62.4 °F 29.8 in NE 9.2 mph 15.6 mph 47.4% 0 in
13:59 84.6 °F 62.8 °F 29.8 in NE 8.9 mph 16 mph 48% 0 in
14:04 84.6 °F 62.8 °F 29.8 in NE 8.5 mph 13 mph 48% 0 in
14:09 84.6 °F 62.6 °F 29.8 in NE 8.2 mph 15 mph 47.8% 0 in
14:14 84.6 °F 62.6 °F 29.8 in NE 7.6 mph 15 mph 48% 0 in
14:19 84.6 °F 62.8 °F 29.8 in NE 7.9 mph 15 mph 48.5% 0 in
14:24 84.7 °F 63.5 °F 29.8 in NE 8.5 mph 14 mph 49% 0 in
14:29 84.9 °F 63.9 °F 29.8 in NE 8.1 mph 13.8 mph 49.5% 0 in
14:34 84.9 °F 64.4 °F 29.8 in NE 7.4 mph 14 mph 50.3% 0 in
14:39 85.1 °F 64.4 °F 29.8 in NE 7.5 mph 16.3 mph 50% 0 in
14:44 85.3 °F 63.7 °F 29.8 in NE 7.6 mph 16.3 mph 48.8% 0 in
14:49 85.3 °F 63.5 °F 29.8 in NNE 7.6 mph 16 mph 48.2% 0 in
14:54 85.5 °F 61.5 °F 29.8 in NE 7.6 mph 13.8 mph 44.7% 0 in
14:59 85.8 °F 59.2 °F 29.8 in ENE 8 mph 18.4 mph 40.7% 0 in
15:04 86.2 °F 58.5 °F 29.8 in NE 8.5 mph 18 mph 39.1% 0 in
15:09 86.4 °F 58.8 °F 29.8 in NE 7.7 mph 14 mph 39.4% 0 in
15:14 86.2 °F 59 °F 29.8 in NE 5.9 mph 14 mph 39.9% 0 in
15:19 86.4 °F 59.2 °F 29.8 in NE 6.4 mph 15.6 mph 39.9% 0 in
15:24 86.5 °F 59.5 °F 29.8 in NE 7.6 mph 18.4 mph 40.4% 0 in
15:29 86.4 °F 60.8 °F 29.8 in NE 8.6 mph 18 mph 42.4% 0 in
15:34 86.4 °F 61 °F 29.8 in NE 10.7 mph 16.1 mph 42.7% 0 in
15:39 86.4 °F 60.4 °F 29.8 in NE 10.1 mph 16.3 mph 41.9% 0 in
15:44 86.4 °F 61 °F 29.8 in NNE 8.7 mph 16.1 mph 42.6% 0 in
15:49 86.4 °F 59.9 °F 29.8 in NNE 9 mph 15 mph 41.1% 0 in
15:54 86 °F 58.8 °F 29.8 in NE 9.7 mph 15.2 mph 40.1% 0 in
15:59 85.6 °F 58.8 °F 29.8 in NNE 9.7 mph 16.1 mph 40.3% 0 in
16:04 85.5 °F 58.8 °F 29.8 in NE 9.7 mph 16.1 mph 40.6% 0 in
16:09 85.3 °F 59.7 °F 29.8 in NE 9.9 mph 17.5 mph 42.1% 0 in
16:14 85.3 °F 60.6 °F 29.8 in NNE 10.2 mph 17 mph 43.7% 0 in
16:19 84.9 °F 61.3 °F 29.8 in NNE 10.2 mph 16.1 mph 45.2% 0 in
16:24 84.9 °F 62.6 °F 29.8 in NE 10.2 mph 16 mph 47.5% 0 in
16:29 84.7 °F 63.7 °F 29.8 in NNE 10.1 mph 16.1 mph 49.4% 0 in
16:34 84.4 °F 64.4 °F 29.8 in NE 10 mph 17.3 mph 51.2% 0 in
16:39 84 °F 63.9 °F 29.8 in NE 9.6 mph 17 mph 50.7% 0 in
16:44 83.8 °F 63.3 °F 29.8 in NE 8.7 mph 19.6 mph 50.2% 0 in
16:49 83.8 °F 63.7 °F 29.8 in NE 9.2 mph 20 mph 50.9% 0 in
16:54 83.8 °F 63.7 °F 29.8 in NE 10.2 mph 15.2 mph 51% 0 in
16:59 83.8 °F 63.5 °F 29.8 in NE 9.8 mph 19.2 mph 50.6% 0 in
17:04 83.8 °F 62.6 °F 29.8 in NNE 9.2 mph 20 mph 48.9% 0 in
17:09 84 °F 62.2 °F 29.8 in NE 10.1 mph 18.5 mph 48% 0 in
17:14 84.2 °F 62.4 °F 29.8 in NNE 11.8 mph 19.6 mph 48.2% 0 in
17:19 84.2 °F 63.3 °F 29.8 in NE 12 mph 20 mph 49.5% 0 in
17:24 84.4 °F 64.9 °F 29.8 in NE 12.3 mph 20 mph 52.1% 0 in
17:29 84.6 °F 66.6 °F 29.8 in NNE 12.2 mph 21.3 mph 55.2% 0 in
17:34 84.4 °F 67.3 °F 29.8 in NNE 11.8 mph 21 mph 56.5% 0 in
17:39 84.4 °F 67.8 °F 29.8 in NE 12.2 mph 24.2 mph 57.7% 0 in
17:44 84.6 °F 68.5 °F 29.8 in NE 13 mph 24 mph 58.6% 0 in
17:49 84.7 °F 68.5 °F 29.8 in NE 12.6 mph 23.5 mph 58.3% 0 in
17:54 84.6 °F 68.2 °F 29.8 in NE 11.8 mph 23.5 mph 58% 0 in
17:59 84.6 °F 68 °F 29.8 in NE 12.6 mph 23 mph 58% 0 in
18:04 84.9 °F 68.4 °F 29.8 in NE 14 mph 23 mph 57.9% 0 in
18:09 84.9 °F 68.4 °F 29.7 in NE 13.7 mph 22.5 mph 57.9% 0 in
18:14 84.7 °F 68.4 °F 29.7 in NE 13 mph 23.5 mph 58% 0 in
18:19 84.6 °F 68.4 °F 29.7 in NE 13.5 mph 23 mph 58.7% 0 in
18:24 84.2 °F 68.4 °F 29.7 in NE 14.5 mph 22 mph 59.3% 0 in
18:29 84.2 °F 68.9 °F 29.7 in NE 13.9 mph 21 mph 60% 0 in
18:34 84 °F 69.1 °F 29.7 in NE 12.5 mph 20.1 mph 60.7% 0 in
18:39 83.7 °F 68.9 °F 29.7 in NE 12.9 mph 21.9 mph 61% 0 in
18:44 83.7 °F 68.9 °F 29.7 in NE 13.5 mph 22 mph 61.2% 0 in
18:49 83.5 °F 69.1 °F 29.7 in NE 13.2 mph 19 mph 62% 0 in
18:54 83.8 °F 69.1 °F 29.7 in NE 12.5 mph 20.7 mph 61.6% 0 in
18:59 83.8 °F 69.1 °F 29.7 in NE 12.2 mph 22.3 mph 61% 0 in
19:04 83.8 °F 69.3 °F 29.7 in NE 11.8 mph 22 mph 61.4% 0 in
19:09 84 °F 69.1 °F 29.7 in NE 11.7 mph 21 mph 61.2% 0 in
19:14 83.7 °F 69.3 °F 29.7 in NE 11.4 mph 20.7 mph 62% 0 in
19:19 83.1 °F 68.7 °F 29.7 in NE 11.7 mph 21 mph 62.1% 0 in
19:24 82.8 °F 68.9 °F 29.7 in NE 12.3 mph 20 mph 63% 0 in
19:29 82.6 °F 68.4 °F 29.7 in NE 12.2 mph 20 mph 62.4% 0 in
19:34 82.4 °F 68 °F 29.7 in NE 11.8 mph 21.3 mph 61.9% 0 in
19:39 81.9 °F 67.6 °F 29.7 in NE 11.8 mph 21.3 mph 62% 0 in
19:44 81.7 °F 67.5 °F 29.7 in NE 11.8 mph 21 mph 62% 0 in
19:49 81.5 °F 67.1 °F 29.7 in NE 11.6 mph 17.5 mph 61.6% 0 in
19:54 81.1 °F 66.6 °F 29.7 in NE 11.2 mph 17.5 mph 61.2% 0 in
19:59 81 °F 66.7 °F 29.7 in NNE 11.3 mph 21.3 mph 62% 0 in
20:04 80.6 °F 66.4 °F 29.7 in NE 11.4 mph 21.9 mph 62.2% 0 in
20:09 80.2 °F 66.7 °F 29.7 in NE 12 mph 24.2 mph 63.5% 0 in
20:14 80.1 °F 66.7 °F 29.7 in NE 13 mph 24 mph 64% 0 in
20:19 79.7 °F 66.4 °F 29.8 in NE 12.9 mph 21.9 mph 64% 0 in
20:24 79.3 °F 66.6 °F 29.8 in NE 12.5 mph 25.3 mph 64.7% 0 in
20:29 79.3 °F 66.6 °F 29.8 in NE 12.3 mph 25.3 mph 65.1% 0 in
20:34 79.3 °F 66.4 °F 29.8 in NE 11.8 mph 21.3 mph 65% 0 in
20:39 79.2 °F 66.7 °F 29.8 in NE 11.7 mph 21 mph 65.8% 0 in
20:44 79 °F 67.3 °F 29.8 in NE 11.4 mph 20 mph 67.5% 0 in
20:49 78.6 °F 67.5 °F 29.8 in NE 11.6 mph 22.3 mph 68.7% 0 in
20:54 78.3 °F 67.6 °F 29.8 in NE 11.8 mph 22 mph 69.6% 0 in
20:59 78.3 °F 68 °F 29.8 in NE 12 mph 21 mph 70.9% 0 in
21:04 78.1 °F 68 °F 29.8 in NE 12.3 mph 21 mph 71.1% 0 in
21:09 78.1 °F 68.4 °F 29.8 in NE 12 mph 20 mph 72.2% 0 in
21:14 77.7 °F 68.5 °F 29.8 in NE 11.4 mph 16.3 mph 73.3% 0 in
21:19 77.5 °F 68.7 °F 29.8 in NE 10.9 mph 16 mph 74.3% 0 in
21:24 77.4 °F 68.9 °F 29.8 in NE 10 mph 17 mph 75% 0 in
21:29 77.2 °F 68.9 °F 29.8 in NE 9.8 mph 17.3 mph 75.7% 0 in
21:34 77 °F 68.9 °F 29.8 in NNE 9.2 mph 17 mph 76% 0 in
21:39 76.6 °F 68.7 °F 29.8 in NNE 9.1 mph 16.1 mph 76.2% 0 in
21:44 76.5 °F 68.7 °F 29.8 in NE 8.7 mph 14 mph 77% 0 in
21:49 76.3 °F 68.7 °F 29.8 in NE 8.6 mph 16.1 mph 77.8% 0 in
21:54 75.9 °F 68.5 °F 29.8 in NNE 8.5 mph 16 mph 78% 0 in
21:59 75.7 °F 68.7 °F 29.8 in NNE 8.1 mph 15 mph 78.8% 0 in
22:04 75.7 °F 68.7 °F 29.8 in NNE 7.6 mph 15.2 mph 79% 0 in
22:09 75.6 °F 68.7 °F 29.8 in NE 8.3 mph 15.2 mph 79.3% 0 in
22:14 75.4 °F 68.9 °F 29.8 in NE 9.7 mph 15.9 mph 80% 0 in
22:19 75.4 °F 68.7 °F 29.8 in NNE 9.7 mph 16.1 mph 80% 0 in
22:24 75.2 °F 68.7 °F 29.8 in NE 9.7 mph 16 mph 80% 0 in
22:29 75 °F 68.9 °F 29.8 in NE 9 mph 14 mph 80.8% 0 in
22:34 75 °F 68.7 °F 29.8 in NE 7.6 mph 16.3 mph 81% 0 in
22:39 74.8 °F 68.7 °F 29.8 in NE 7.9 mph 16.1 mph 81% 0 in
22:44 74.8 °F 68.5 °F 29.8 in NE 8.5 mph 15 mph 81% 0 in
22:49 74.8 °F 68.5 °F 29.8 in NE 8 mph 12 mph 81% 0 in
22:54 74.8 °F 68.7 °F 29.8 in NNE 6.9 mph 12 mph 81.3% 0 in
22:59 74.7 °F 68.7 °F 29.8 in NNE 6.3 mph 10.4 mph 82% 0 in
23:04 74.7 °F 68.7 °F 29.8 in NNE 5.4 mph 10 mph 82% 0 in
23:09 74.5 °F 68.5 °F 29.8 in NE 5.4 mph 11.4 mph 82% 0 in
23:14 74.5 °F 68.5 °F 29.8 in NNE 5.4 mph 11 mph 82% 0 in
23:19 74.5 °F 68.5 °F 29.8 in NE 5.1 mph 10 mph 82% 0 in
23:24 74.5 °F 68.5 °F 29.8 in NE 4.3 mph 8.7 mph 82% 0 in
23:29 74.3 °F 68.7 °F 29.8 in NNE 4.7 mph 9.2 mph 82.5% 0 in
23:34 74.1 °F 68.7 °F 29.8 in NNE 5.4 mph 9.2 mph 83% 0 in
23:39 74.1 °F 68.5 °F 29.8 in NNE 5.2 mph 8.5 mph 83% 0 in
23:44 74.1 °F 68.5 °F 29.8 in NNE 4.7 mph 9 mph 83% 0 in
23:49 73.9 °F 68.5 °F 29.8 in NE 4.3 mph 8.1 mph 83% 0 in
23:54 73.9 °F 68.4 °F 29.8 in NNE 3.6 mph 8 mph 83% 0 in
23:59 73.9 °F 68.4 °F 29.8 in NE 3.9 mph 7.4 mph 83% 0 in
Murcia-Puente Tocinos, España
Compliments of Weather Underground - 3 mb

La estación de MeteoMurcia.com, publica sus datos en los siguientes proyectos:

Weather Underground PWS IMURCIAP2 Meteoclimatic www.awekas.at

W3Counter
Web Analytics